Time;durP1;ratioP1;P1;durP2;ratioP2;P2;SDS_P1;SDS_P2;PMS_P1;PMS_P2;Temp;Humidity;BMP_temperature;BMP_pressure;BME280_temperature;BME280_humidity;BME280_pressure;Samples;Min_cycle;Max_cycle;Signal;HPM_P1;HPM_P2
2022/10/17 00:01:45;;;;;;;16.50;5.32;;;10.90;99.90;;;;;;5054198;28;20041;-27
2022/10/17 00:04:10;;;;;;;14.18;4.85;;;10.90;99.90;;;;;;5053658;28;20072;-27
2022/10/17 00:06:36;;;;;;;16.63;5.68;;;10.80;99.90;;;;;;5053824;28;20048;-27
2022/10/17 00:09:02;;;;;;;12.70;4.80;;;10.90;99.90;;;;;;5052598;28;20471;-27
2022/10/17 00:11:28;;;;;;;17.98;5.45;;;10.90;99.90;;;;;;5053518;28;20041;-27
2022/10/17 00:13:55;;;;;;;15.15;4.93;;;10.90;99.90;;;;;;5053352;28;20055;-27
2022/10/17 00:16:26;;;;;;;17.38;5.30;;;10.90;99.90;;;;;;5053423;28;20063;-27
2022/10/17 00:18:51;;;;;;;15.88;4.72;;;10.90;99.90;;;;;;5054274;28;20360;-28
2022/10/17 00:21:18;;;;;;;19.25;5.70;;;10.90;99.90;;;;;;5055542;28;20049;-27
2022/10/17 00:23:45;;;;;;;14.25;5.18;;;10.90;99.90;;;;;;5057562;28;20107;-28
2022/10/17 00:26:11;;;;;;;15.00;4.57;;;10.90;99.90;;;;;;5057486;28;20125;-27
2022/10/17 00:28:36;;;;;;;17.88;4.80;;;10.90;99.90;;;;;;5057526;28;20080;-28
2022/10/17 00:31:04;;;;;;;15.93;4.25;;;10.90;99.90;;;;;;5056487;28;20468;-27
2022/10/17 00:33:31;;;;;;;19.73;5.05;;;10.90;99.90;;;;;;5057395;28;20049;-28
2022/10/17 00:36:19;;;;;;;12.13;4.22;;;10.90;99.90;;;;;;5057250;28;20037;-27
2022/10/17 00:38:47;;;;;;;13.30;4.63;;;11.00;99.90;;;;;;5056023;28;20112;-27
2022/10/17 00:41:15;;;;;;;11.00;3.45;;;10.90;99.90;;;;;;5056249;28;20502;-27
2022/10/17 00:43:52;;;;;;;17.92;4.18;;;10.90;99.90;;;;;;5057198;28;20052;-29
2022/10/17 00:46:19;;;;;;;11.25;3.67;;;10.90;99.90;;;;;;5057126;28;20122;-27
2022/10/17 00:48:46;;;;;;;14.10;3.65;;;10.90;99.90;;;;;;5057114;28;20051;-27
2022/10/17 00:51:12;;;;;;;13.77;3.47;;;10.90;99.90;;;;;;5055607;28;20052;-27
2022/10/17 00:53:38;;;;;;;16.60;4.20;;;10.90;99.90;;;;;;5057086;28;20441;-27
2022/10/17 00:56:04;;;;;;;12.50;3.70;;;11.00;99.90;;;;;;5057721;28;20041;-27
2022/10/17 00:58:30;;;;;;;9.77;3.30;;;11.00;99.90;;;;;;5039360;28;20087;-27
2022/10/17 01:00:56;;;;;;;13.10;3.10;;;11.00;99.90;;;;;;5057345;28;20088;-27
2022/10/17 01:03:21;;;;;;;15.32;3.63;;;11.10;99.90;;;;;;5056244;28;20049;-27
2022/10/17 01:05:47;;;;;;;11.77;4.60;;;11.20;99.90;;;;;;5056784;28;20049;-28
2022/10/17 01:08:13;;;;;;;12.00;4.05;;;11.20;99.90;;;;;;5057001;28;20051;-28
2022/10/17 01:11:12;;;;;;;13.55;4.25;;;11.30;99.90;;;;;;5055726;28;20142;-27
2022/10/17 01:14:34;;;;;;;14.85;4.43;;;11.40;99.90;;;;;;5056674;28;20554;-28
2022/10/17 01:17:21;;;;;;;11.20;4.47;;;11.50;99.90;;;;;;5070901;28;20045;-27
2022/10/17 01:19:49;;;;;;;17.55;4.65;;;11.50;99.90;;;;;;5054213;28;20044;-27
2022/10/17 01:22:22;;;;;;;14.73;5.00;;;11.50;99.90;;;;;;5055996;28;20111;-27
2022/10/17 01:25:10;;;;;;;14.52;4.78;;;11.50;99.90;;;;;;5056511;28;20056;-28
2022/10/17 01:28:13;;;;;;;12.98;4.57;;;11.60;99.90;;;;;;5056423;28;20040;-27
2022/10/17 01:31:14;;;;;;;10.68;4.28;;;11.60;99.90;;;;;;5055165;28;20055;-28
2022/10/17 01:33:54;;;;;;;18.65;5.05;;;11.60;99.90;;;;;;5056242;28;20059;-28
2022/10/17 01:36:32;;;;;;;11.35;3.80;;;11.70;99.90;;;;;;5057021;28;20040;-27
2022/10/17 01:39:14;;;;;;;11.57;3.72;;;11.70;99.90;;;;;;5056849;28;20056;-27
2022/10/17 01:41:56;;;;;;;11.98;3.70;;;11.80;99.90;;;;;;5056697;28;20041;-27
2022/10/17 01:44:54;;;;;;;9.88;3.88;;;11.90;99.90;;;;;;5056972;28;20060;-28
2022/10/17 01:47:25;;;;;;;11.13;3.60;;;11.90;99.90;;;;;;5056068;28;20049;-28
2022/10/17 01:49:54;;;;;;;10.95;4.03;;;11.90;99.90;;;;;;5055360;28;20095;-29
2022/10/17 01:52:31;;;;;;;16.42;4.70;;;12.00;99.90;;;;;;5056548;28;20144;-28
2022/10/17 01:55:18;;;;;;;12.00;4.47;;;12.00;99.90;;;;;;5055915;28;20606;-28
2022/10/17 01:57:50;;;;;;;13.27;4.30;;;12.00;99.90;;;;;;5055421;28;20101;-27
2022/10/17 02:00:22;;;;;;;10.57;4.32;;;12.00;99.90;;;;;;5056002;28;20064;-28
2022/10/17 02:02:52;;;;;;;9.90;4.38;;;12.10;99.90;;;;;;5055735;28;20040;-27
2022/10/17 02:05:23;;;;;;;9.75;4.90;;;12.10;99.90;;;;;;5056291;28;20177;-28
2022/10/17 02:07:49;;;;;;;11.20;4.00;;;12.10;99.90;;;;;;5054557;28;20491;-28
2022/10/17 02:10:34;;;;;;;12.07;4.22;;;12.10;99.90;;;;;;5056156;28;20053;-29
2022/10/17 02:13:14;;;;;;;9.90;4.07;;;12.10;99.90;;;;;;5087780;28;20136;-27
2022/10/17 02:16:04;;;;;;;10.05;4.93;;;12.10;99.90;;;;;;5056027;28;20186;-28
2022/10/17 02:19:03;;;;;;;14.70;5.07;;;12.10;99.90;;;;;;5055766;28;20084;-28
2022/10/17 02:21:43;;;;;;;15.63;5.00;;;12.00;99.90;;;;;;5056018;28;20454;-28
2022/10/17 02:24:18;;;;;;;10.63;4.40;;;12.00;99.90;;;;;;5056206;28;20044;-28
2022/10/17 02:27:02;;;;;;;11.45;4.93;;;12.00;99.90;;;;;;5054320;28;20053;-27
2022/10/17 02:29:37;;;;;;;9.80;5.18;;;12.00;99.90;;;;;;5054875;28;20056;-28
2022/10/17 02:32:12;;;;;;;13.82;5.07;;;11.90;99.90;;;;;;5055218;28;20056;-27
2022/10/17 02:34:42;;;;;;;14.77;6.18;;;11.90;99.90;;;;;;5037907;28;20052;-28
2022/10/17 02:37:12;;;;;;;16.90;5.53;;;11.90;99.90;;;;;;5053644;28;20051;-28
2022/10/17 02:39:39;;;;;;;12.85;5.35;;;11.90;99.90;;;;;;5054780;28;20407;-27
2022/10/17 02:42:09;;;;;;;15.00;5.53;;;11.90;99.90;;;;;;5055024;28;20049;-28
2022/10/17 02:44:38;;;;;;;9.85;5.75;;;11.80;99.90;;;;;;5054304;28;20037;-27
2022/10/17 02:47:24;;;;;;;12.23;6.47;;;11.80;99.90;;;;;;5054180;28;20438;-28
2022/10/17 02:49:52;;;;;;;13.98;6.30;;;11.80;99.90;;;;;;5053782;28;20041;-28
2022/10/17 02:52:41;;;;;;;9.30;5.80;;;11.80;99.90;;;;;;5054678;28;20422;-28
2022/10/17 02:55:07;;;;;;;10.20;6.38;;;11.70;99.90;;;;;;5054810;28;20106;-28
2022/10/17 02:57:37;;;;;;;14.73;6.38;;;11.70;99.90;;;;;;5053467;28;20049;-28
2022/10/17 03:00:07;;;;;;;12.77;6.45;;;11.70;99.90;;;;;;5055143;28;20044;-28
2022/10/17 03:02:38;;;;;;;16.65;7.85;;;11.70;99.90;;;;;;5055178;28;20045;-28
2022/10/17 03:05:05;;;;;;;15.00;7.10;;;11.80;99.90;;;;;;5053395;28;20132;-28
2022/10/17 03:07:30;;;;;;;16.95;8.27;;;11.80;99.90;;;;;;5055017;28;20120;-28
2022/10/17 03:09:56;;;;;;;13.18;7.55;;;11.80;99.90;;;;;;5053769;28;20049;-28
2022/10/17 03:12:21;;;;;;;14.50;7.30;;;11.80;99.90;;;;;;5054397;28;20060;-28
2022/10/17 03:14:47;;;;;;;15.43;7.47;;;11.80;99.90;;;;;;5054051;28;20049;-28
2022/10/17 03:17:13;;;;;;;11.80;7.72;;;11.80;99.90;;;;;;5055070;28;20036;-28
2022/10/17 03:19:38;;;;;;;12.63;7.90;;;11.80;99.90;;;;;;5054892;28;20387;-28
2022/10/17 03:22:04;;;;;;;14.82;8.32;;;11.80;99.90;;;;;;5054223;28;20123;-28
2022/10/17 03:24:30;;;;;;;14.15;8.35;;;11.80;99.90;;;;;;5054504;28;20051;-29
2022/10/17 03:26:55;;;;;;;16.17;8.27;;;11.90;99.90;;;;;;5054212;28;20498;-28
2022/10/17 03:29:21;;;;;;;11.40;8.02;;;11.90;99.90;;;;;;5054650;28;20483;-28
2022/10/17 03:31:47;;;;;;;11.35;8.63;;;11.90;99.90;;;;;;5054914;28;20075;-29
2022/10/17 03:34:15;;;;;;;15.27;9.90;;;11.90;99.90;;;;;;5054031;28;20483;-29
2022/10/17 03:36:41;;;;;;;12.38;8.73;;;11.90;99.90;;;;;;5053902;28;20041;-28
2022/10/17 03:39:06;;;;;;;12.45;8.27;;;11.90;99.90;;;;;;5053950;28;20053;-28
2022/10/17 03:41:32;;;;;;;11.73;9.20;;;11.90;99.90;;;;;;5053917;28;20047;-28
2022/10/17 03:43:58;;;;;;;17.92;9.07;;;11.80;99.90;;;;;;5020137;28;20090;-27
2022/10/17 03:46:23;;;;;;;9.93;8.75;;;11.80;99.90;;;;;;5053427;28;20052;-28
2022/10/17 03:48:49;;;;;;;15.63;9.25;;;11.90;99.90;;;;;;5053834;28;20052;-29
2022/10/17 03:51:15;;;;;;;17.25;9.45;;;11.90;99.90;;;;;;5053780;28;20056;-28
2022/10/17 03:53:41;;;;;;;20.20;10.52;;;11.80;99.90;;;;;;5053763;28;20049;-28
2022/10/17 03:56:18;;;;;;;18.08;9.63;;;11.90;99.90;;;;;;5052735;28;20045;-28
2022/10/17 03:58:44;;;;;;;13.35;10.45;;;11.80;99.90;;;;;;5086601;28;20041;-28
2022/10/17 04:01:12;;;;;;;14.93;10.52;;;11.80;99.90;;;;;;5054396;28;20052;-28
2022/10/17 04:03:38;;;;;;;16.92;11.30;;;11.80;99.90;;;;;;5053609;28;20065;-28
2022/10/17 04:06:05;;;;;;;15.35;10.90;;;11.80;99.90;;;;;;5053590;28;20041;-28
2022/10/17 04:08:32;;;;;;;13.43;10.30;;;11.80;99.90;;;;;;5052639;28;20045;-28
2022/10/17 04:11:01;;;;;;;14.60;11.10;;;11.80;99.90;;;;;;5053548;28;20092;-28
2022/10/17 04:13:28;;;;;;;18.33;11.75;;;11.80;99.90;;;;;;5053509;28;20059;-28
2022/10/17 04:15:55;;;;;;;18.17;12.40;;;11.80;99.90;;;;;;5052752;28;20045;-28
2022/10/17 04:18:21;;;;;;;17.95;13.10;;;11.80;99.90;;;;;;5053555;28;20045;-28
2022/10/17 04:20:47;;;;;;;15.80;12.38;;;11.80;99.90;;;;;;5053489;28;20556;-27
2022/10/17 04:23:12;;;;;;;18.90;14.05;;;11.90;99.90;;;;;;5053146;28;20041;-28
2022/10/17 04:25:38;;;;;;;20.20;14.10;;;11.90;99.90;;;;;;5035866;28;20081;-28
2022/10/17 04:28:03;;;;;;;18.63;13.90;;;12.00;99.90;;;;;;5054201;28;20117;-28
2022/10/17 04:30:29;;;;;;;16.58;13.50;;;12.00;99.90;;;;;;5053388;28;20045;-28
2022/10/17 04:32:55;;;;;;;20.23;14.68;;;12.10;99.90;;;;;;5053333;28;20545;-28
2022/10/17 04:35:20;;;;;;;21.23;14.60;;;12.10;99.90;;;;;;5036263;28;20047;-29
2022/10/17 04:37:46;;;;;;;16.20;13.75;;;12.10;99.90;;;;;;5053495;28;20110;-28
2022/10/17 04:40:12;;;;;;;19.08;13.98;;;12.20;99.90;;;;;;5053862;28;20387;-27
2022/10/17 04:42:37;;;;;;;23.85;14.95;;;12.20;99.90;;;;;;5052098;28;20130;-28
2022/10/17 04:45:04;;;;;;;19.65;14.70;;;12.30;99.90;;;;;;5053279;28;20049;-28
2022/10/17 04:47:30;;;;;;;23.90;15.70;;;12.30;99.90;;;;;;5052010;28;20561;-28
2022/10/17 04:49:56;;;;;;;21.67;15.93;;;12.30;99.90;;;;;;5053175;28;20487;-28
2022/10/17 04:52:22;;;;;;;24.48;16.30;;;12.40;99.90;;;;;;5052515;28;20108;-28
2022/10/17 04:54:47;;;;;;;23.40;16.38;;;12.50;99.90;;;;;;5053728;28;20048;-28
2022/10/17 04:57:13;;;;;;;27.48;17.33;;;12.50;99.90;;;;;;5052771;28;20045;-28
2022/10/17 04:59:39;;;;;;;21.30;16.35;;;12.50;99.90;;;;;;5053036;28;20040;-28
2022/10/17 05:02:05;;;;;;;21.02;16.52;;;12.60;99.90;;;;;;5053115;28;20052;-28
2022/10/17 05:04:31;;;;;;;24.85;16.65;;;12.60;99.90;;;;;;5053117;28;20455;-28
2022/10/17 05:06:57;;;;;;;25.58;17.02;;;12.60;99.90;;;;;;5054418;28;20123;-28
2022/10/17 05:09:23;;;;;;;23.52;16.35;;;12.60;99.90;;;;;;5056791;28;20055;-28
2022/10/17 05:11:48;;;;;;;21.27;17.38;;;12.70;99.90;;;;;;5055568;28;20445;-28
2022/10/17 05:14:14;;;;;;;22.00;15.70;;;12.70;99.90;;;;;;5056319;28;20463;-28
2022/10/17 05:16:40;;;;;;;21.42;16.77;;;12.80;99.90;;;;;;5056568;28;20071;-28
2022/10/17 05:19:06;;;;;;;20.77;17.48;;;12.80;99.90;;;;;;5056648;28;20052;-28
2022/10/17 05:21:32;;;;;;;24.75;17.27;;;12.80;99.90;;;;;;5056525;28;20044;-28
2022/10/17 05:23:58;;;;;;;23.98;16.92;;;12.80;99.90;;;;;;5056198;28;20045;-28
2022/10/17 05:26:24;;;;;;;24.15;18.30;;;12.90;99.90;;;;;;5057045;28;20411;-28
2022/10/17 05:28:51;;;;;;;26.95;18.08;;;12.90;99.90;;;;;;5056609;28;20374;-28
2022/10/17 05:31:17;;;;;;;26.65;16.92;;;13.00;99.90;;;;;;5056369;28;20045;-28
2022/10/17 05:33:43;;;;;;;22.88;18.70;;;13.00;99.90;;;;;;5056340;28;20506;-28
2022/10/17 05:36:09;;;;;;;22.50;18.73;;;13.00;99.90;;;;;;5056046;28;20151;-28
2022/10/17 05:38:35;;;;;;;25.27;18.58;;;13.00;99.90;;;;;;5056494;28;20126;-28
2022/10/17 05:41:03;;;;;;;25.42;18.85;;;13.00;99.90;;;;;;5056146;28;20045;-28
2022/10/17 05:43:29;;;;;;;21.52;17.83;;;13.00;99.90;;;;;;5055001;28;20045;-28
2022/10/17 05:45:55;;;;;;;24.00;17.50;;;13.00;99.90;;;;;;5056089;28;20147;-28
2022/10/17 05:48:22;;;;;;;27.05;18.70;;;13.00;99.90;;;;;;5055461;28;20068;-29
2022/10/17 05:50:47;;;;;;;28.20;19.95;;;13.00;99.90;;;;;;5055792;28;20045;-28
2022/10/17 05:53:14;;;;;;;25.65;20.55;;;13.10;99.90;;;;;;5056279;28;20530;-28
2022/10/17 05:55:40;;;;;;;29.73;20.20;;;13.10;99.90;;;;;;5055917;28;20049;-28
2022/10/17 05:58:06;;;;;;;30.92;21.02;;;13.10;99.90;;;;;;5055218;28;20122;-28
2022/10/17 06:00:32;;;;;;;28.67;20.73;;;13.10;99.90;;;;;;5055751;28;20049;-28
2022/10/17 06:02:57;;;;;;;28.80;20.55;;;13.20;99.90;;;;;;5054473;28;20056;-28
2022/10/17 06:05:23;;;;;;;31.60;21.65;;;13.20;99.90;;;;;;5056041;28;20071;-29
2022/10/17 06:07:51;;;;;;;28.42;20.90;;;13.20;99.90;;;;;;5055365;28;20483;-28
2022/10/17 06:10:17;;;;;;;27.80;19.67;;;13.20;99.90;;;;;;5055631;28;20045;-28
2022/10/17 06:12:44;;;;;;;26.67;20.30;;;13.20;99.90;;;;;;5054627;28;20084;-28
2022/10/17 06:15:10;;;;;;;26.38;20.92;;;13.30;99.90;;;;;;5055545;28;20037;-29
2022/10/17 06:17:36;;;;;;;32.72;20.95;;;13.40;99.90;;;;;;5054973;28;20044;-28
2022/10/17 06:20:02;;;;;;;30.00;21.77;;;13.40;99.90;;;;;;5054744;28;20483;-29
2022/10/17 06:22:28;;;;;;;28.67;20.40;;;13.50;99.90;;;;;;5070834;28;20394;-28
2022/10/17 06:24:54;;;;;;;26.63;20.63;;;13.60;99.90;;;;;;5054738;28;20040;-28
2022/10/17 06:27:20;;;;;;;25.88;20.92;;;13.60;99.90;;;;;;5055250;28;20037;-29
2022/10/17 06:29:47;;;;;;;26.30;20.25;;;13.60;99.90;;;;;;5054859;28;20076;-28
2022/10/17 06:32:13;;;;;;;27.08;20.10;;;13.70;99.90;;;;;;5055240;28;20049;-29
2022/10/17 06:34:39;;;;;;;27.83;20.00;;;13.70;99.90;;;;;;5055141;28;20049;-28
2022/10/17 06:37:05;;;;;;;27.63;19.70;;;13.70;99.90;;;;;;5055322;28;20048;-28
2022/10/17 06:39:32;;;;;;;34.63;20.55;;;13.80;99.90;;;;;;5055033;28;20377;-28
2022/10/17 06:42:02;;;;;;;27.15;19.80;;;13.80;99.90;;;;;;5055014;28;20124;-28
2022/10/17 06:44:30;;;;;;;28.58;18.35;;;13.80;99.90;;;;;;5053715;28;20056;-28
2022/10/17 06:46:58;;;;;;;27.90;21.00;;;13.80;99.90;;;;;;5054923;28;20053;-28
2022/10/17 06:49:24;;;;;;;33.95;19.42;;;13.80;99.90;;;;;;5055487;28;20119;-29
2022/10/17 06:51:49;;;;;;;31.23;18.45;;;13.90;99.90;;;;;;5054945;28;20060;-28
2022/10/17 06:54:15;;;;;;;27.17;19.67;;;13.90;99.90;;;;;;5055257;28;20052;-28
2022/10/17 06:56:41;;;;;;;23.77;17.65;;;13.90;99.90;;;;;;5055140;28;20084;-28
2022/10/17 06:59:08;;;;;;;25.02;18.10;;;13.90;99.90;;;;;;5054579;28;20115;-29
2022/10/17 07:01:34;;;;;;;24.30;18.60;;;14.00;99.90;;;;;;5054698;28;20048;-28
2022/10/17 07:04:00;;;;;;;22.88;17.55;;;14.00;99.90;;;;;;5054002;28;20128;-29
2022/10/17 07:06:25;;;;;;;27.30;18.55;;;14.00;99.90;;;;;;5054630;28;20044;-30
2022/10/17 07:08:51;;;;;;;22.33;17.55;;;14.10;99.90;;;;;;5054289;28;20128;-28
2022/10/17 07:11:20;;;;;;;27.00;18.65;;;14.10;99.90;;;;;;5052966;28;20132;-28
2022/10/17 07:13:46;;;;;;;27.90;17.17;;;14.20;99.90;;;;;;5036630;28;20464;-28
2022/10/17 07:16:13;;;;;;;21.02;17.15;;;14.20;99.90;;;;;;5054287;28;20075;-29
2022/10/17 07:18:40;;;;;;;27.23;17.13;;;14.30;99.90;;;;;;5054323;28;20076;-28
2022/10/17 07:21:07;;;;;;;22.15;16.95;;;14.30;99.90;;;;;;5054333;28;20092;-28
2022/10/17 07:23:35;;;;;;;21.27;15.82;;;14.40;99.90;;;;;;5054272;28;20103;-29
2022/10/17 07:26:07;;;;;;;20.30;16.35;;;14.50;99.90;;;;;;5052971;28;20048;-28
2022/10/17 07:28:35;;;;;;;20.67;15.25;;;14.60;99.90;;;;;;5054902;28;20045;-28
2022/10/17 07:31:15;;;;;;;18.67;14.48;;;14.70;99.90;;;;;;5053876;28;20399;-28
2022/10/17 07:33:42;;;;;;;21.50;13.93;;;14.90;99.90;;;;;;5054938;28;20044;-28
2022/10/17 07:36:08;;;;;;;18.58;14.20;;;15.00;99.90;;;;;;5053927;28;20094;-28
2022/10/17 07:38:35;;;;;;;17.10;14.75;;;15.10;99.90;;;;;;5052795;28;20041;-28
2022/10/17 07:41:02;;;;;;;17.08;13.82;;;15.10;99.90;;;;;;5053623;28;20576;-28
2022/10/17 07:43:29;;;;;;;19.05;13.05;;;15.20;99.90;;;;;;5053892;28;20045;-28
2022/10/17 07:45:55;;;;;;;19.10;12.40;;;15.30;99.90;;;;;;5053913;28;20045;-28
2022/10/17 07:48:23;;;;;;;20.13;13.20;;;15.30;99.90;;;;;;5053834;28;20048;-29
2022/10/17 07:50:49;;;;;;;14.57;13.10;;;15.40;99.90;;;;;;5053289;28;20434;-28
2022/10/17 07:53:15;;;;;;;17.30;13.10;;;15.40;99.90;;;;;;5053471;28;20554;-28
2022/10/17 07:55:42;;;;;;;17.70;12.77;;;15.50;99.90;;;;;;5053699;28;20175;-29
2022/10/17 07:58:08;;;;;;;13.05;11.18;;;15.60;99.90;;;;;;5053212;28;20115;-28
2022/10/17 08:00:35;;;;;;;13.82;10.88;;;15.70;99.90;;;;;;5054444;28;20041;-28
2022/10/17 08:03:01;;;;;;;15.30;11.50;;;15.80;99.90;;;;;;5053290;28;20487;-28
2022/10/17 08:05:28;;;;;;;14.02;11.55;;;15.90;99.90;;;;;;5053913;28;20052;-28
2022/10/17 08:07:54;;;;;;;18.10;11.07;;;16.10;99.90;;;;;;5053484;28;20051;-28
2022/10/17 08:10:20;;;;;;;13.35;9.95;;;16.10;99.90;;;;;;5053479;28;20053;-28
2022/10/17 08:12:46;;;;;;;11.88;9.90;;;16.20;99.90;;;;;;5052543;28;20490;-28
2022/10/17 08:15:11;;;;;;;14.98;10.25;;;16.20;99.90;;;;;;5053491;28;20041;-29
2022/10/17 08:17:38;;;;;;;13.90;9.57;;;16.30;99.90;;;;;;5052192;28;20120;-28
2022/10/17 08:20:05;;;;;;;11.18;8.80;;;16.30;99.90;;;;;;5053420;28;20135;-28
2022/10/17 08:22:31;;;;;;;13.70;9.48;;;16.30;99.90;;;;;;5053843;28;20045;-28
2022/10/17 08:24:57;;;;;;;15.80;9.48;;;16.40;99.90;;;;;;5053567;28;20453;-28
2022/10/17 08:27:24;;;;;;;12.95;9.23;;;16.50;99.90;;;;;;5054189;28;20033;-28
2022/10/17 08:29:54;;;;;;;9.75;7.97;;;16.50;99.90;;;;;;5054129;28;20049;-28
2022/10/17 08:32:23;;;;;;;13.88;8.55;;;16.50;99.90;;;;;;5053853;28;20084;-28
2022/10/17 08:34:49;;;;;;;12.80;8.35;;;16.60;99.90;;;;;;5053373;28;20095;-28
2022/10/17 08:37:15;;;;;;;13.35;8.95;;;16.60;99.90;;;;;;5053265;28;20041;-27
2022/10/17 08:39:41;;;;;;;10.98;8.55;;;;;;;;;;5053161;28;20443;-28
2022/10/17 08:42:07;;;;;;;14.40;8.82;;;16.70;99.90;;;;;;5054980;28;20048;-28
2022/10/17 08:44:52;;;;;;;10.57;8.10;;;;;;;;;;5056273;28;20045;-29
2022/10/17 08:47:28;;;;;;;9.07;6.72;;;16.90;99.90;;;;;;5057201;28;20523;-28
2022/10/17 08:49:58;;;;;;;11.13;8.00;;;17.10;99.90;;;;;;5040188;28;20102;-28
2022/10/17 08:52:52;;;;;;;12.02;7.28;;;17.10;99.90;;;;;;5057209;28;20057;-28
2022/10/17 08:55:21;;;;;;;13.10;7.07;;;17.20;99.90;;;;;;5057114;28;20049;-28
2022/10/17 08:57:47;;;;;;;10.60;7.40;;;17.20;99.90;;;;;;5057788;28;20106;-28
2022/10/17 09:00:19;;;;;;;12.65;7.70;;;17.20;99.90;;;;;;5022838;28;20092;-28
2022/10/17 09:03:02;;;;;;;14.00;7.43;;;17.30;99.90;;;;;;5057529;28;20045;-28
2022/10/17 09:05:42;;;;;;;11.48;7.03;;;17.40;99.90;;;;;;5039550;28;20507;-28
2022/10/17 09:08:23;;;;;;;12.55;7.47;;;17.40;99.90;;;;;;5056849;28;20048;-28
2022/10/17 09:11:17;;;;;;;7.90;6.75;;;17.40;99.90;;;;;;5057329;28;20055;-27
2022/10/17 09:14:09;;;;;;;8.05;5.97;;;17.40;99.90;;;;;;5057290;28;20045;-28
2022/10/17 09:16:46;;;;;;;8.57;6.82;;;17.40;99.90;;;;;;5057054;28;20041;-28
2022/10/17 09:19:23;;;;;;;8.98;6.15;;;17.40;99.90;;;;;;5056662;28;20053;-28
2022/10/17 09:21:57;;;;;;;11.45;7.13;;;17.40;99.90;;;;;;5056290;28;20049;-29
2022/10/17 09:24:32;;;;;;;9.63;6.90;;;17.40;99.90;;;;;;5056422;28;20059;-28
2022/10/17 09:26:58;;;;;;;15.68;9.20;;;17.40;99.90;;;;;;5056133;28;20434;-29
2022/10/17 09:29:25;;;;;;;13.63;7.93;;;17.40;99.90;;;;;;5056725;28;20051;-28
2022/10/17 09:31:58;;;;;;;9.73;7.05;;;17.40;99.90;;;;;;5056287;28;20087;-27
2022/10/17 09:34:26;;;;;;;15.50;8.40;;;17.30;99.90;;;;;;5056347;28;20558;-27
2022/10/17 09:36:52;;;;;;;13.13;8.18;;;17.20;99.90;;;;;;5056207;28;20080;-29
2022/10/17 09:39:23;;;;;;;12.73;8.27;;;17.10;99.90;;;;;;5056307;28;20387;-27
2022/10/17 09:41:54;;;;;;;14.10;8.02;;;17.00;99.90;;;;;;5056184;28;20510;-27
2022/10/17 09:44:37;;;;;;;11.25;7.80;;;17.00;99.90;;;;;;5055005;28;20045;-27
2022/10/17 09:47:29;;;;;;;9.70;7.10;;;16.90;99.90;;;;;;5056980;28;20147;-26
2022/10/17 09:49:55;;;;;;;12.93;9.38;;;16.90;99.90;;;;;;5054969;28;20095;-27
2022/10/17 09:52:38;;;;;;;16.73;10.73;;;16.80;99.90;;;;;;5056493;28;20088;-27
2022/10/17 09:55:05;;;;;;;11.65;9.52;;;16.70;99.90;;;;;;5056541;28;20084;-27
2022/10/17 09:57:52;;;;;;;13.50;10.70;;;16.60;99.90;;;;;;5055522;28;20037;-26
2022/10/17 10:00:29;;;;;;;15.63;9.52;;;16.50;99.90;;;;;;5056068;28;20048;-26
2022/10/17 10:03:18;;;;;;;14.32;11.85;;;16.50;99.90;;;;;;5055804;28;20096;-27
2022/10/17 10:06:04;;;;;;;16.52;11.20;;;16.40;99.90;;;;;;5055839;28;20162;-25
2022/10/17 10:08:36;;;;;;;17.70;12.10;;;16.30;99.90;;;;;;5055343;28;20525;-26
2022/10/17 10:11:05;;;;;;;20.70;12.18;;;16.30;99.90;;;;;;5055693;28;20080;-26
2022/10/17 10:13:33;;;;;;;18.67;14.10;;;16.20;99.90;;;;;;5055574;28;20041;-26
2022/10/17 10:16:21;;;;;;;20.75;14.25;;;16.20;99.90;;;;;;5055445;28;20051;-27
2022/10/17 10:18:48;;;;;;;13.00;11.52;;;16.20;99.90;;;;;;5054507;28;20082;-27
2022/10/17 10:21:15;;;;;;;20.02;12.02;;;16.10;99.90;;;;;;5054278;28;20444;-27
2022/10/17 10:23:44;;;;;;;16.88;11.52;;;16.10;99.90;;;;;;5055937;28;20383;-28
2022/10/17 10:26:22;;;;;;;19.48;13.05;;;16.00;99.90;;;;;;5055889;28;20373;-28
2022/10/17 10:28:56;;;;;;;22.48;14.05;;;16.10;99.90;;;;;;5055650;28;20040;-28
2022/10/17 10:31:28;;;;;;;25.40;15.68;;;16.00;99.90;;;;;;5055378;28;20049;-28
2022/10/17 10:33:54;;;;;;;30.15;15.00;;;16.10;99.90;;;;;;5055693;28;20053;-28
2022/10/17 10:36:21;;;;;;;18.10;14.18;;;16.10;99.90;;;;;;5054067;28;20128;-29
2022/10/17 10:38:56;;;;;;;20.10;13.02;;;16.10;99.90;;;;;;5037873;28;20052;-29
2022/10/17 10:41:22;;;;;;;19.05;13.25;;;16.20;99.90;;;;;;5053839;28;20406;-30
2022/10/17 10:43:50;;;;;;;19.40;12.38;;;16.20;99.90;;;;;;5054727;28;20052;-30
2022/10/17 10:46:23;;;;;;;17.88;12.85;;;16.20;99.90;;;;;;5054573;28;20356;-29
2022/10/17 10:49:28;;;;;;;18.75;13.60;;;16.20;99.90;;;;;;5054900;28;20059;-31
2022/10/17 10:51:56;;;;;;;16.98;12.95;;;16.20;99.90;;;;;;5055248;28;20061;-31
2022/10/17 10:54:35;;;;;;;24.02;15.35;;;16.20;99.90;;;;;;5054819;28;20053;-30
2022/10/17 10:57:06;;;;;;;18.02;11.43;;;16.20;99.90;;;;;;5053630;28;20094;-31
2022/10/17 10:59:39;;;;;;;38.60;17.15;;;16.30;99.90;;;;;;5055013;28;20052;-32
2022/10/17 11:02:21;;;;;;;20.58;11.23;;;16.20;99.90;;;;;;5055308;28;20142;-30
2022/10/17 11:04:54;;;;;;;27.15;15.30;;;16.40;99.90;;;;;;5053220;28;20407;-32
2022/10/17 11:07:29;;;;;;;20.52;15.50;;;16.40;99.90;;;;;;5053652;28;20052;-31
2022/10/17 11:10:18;;;;;;;21.27;15.65;;;16.40;99.90;;;;;;5054638;28;20120;-29
2022/10/17 11:13:16;;;;;;;20.95;14.43;;;16.60;99.90;;;;;;5055359;28;20052;-30
2022/10/17 11:15:58;;;;;;;24.63;16.38;;;16.60;99.90;;;;;;5054382;28;20044;-30
2022/10/17 11:18:32;;;;;;;29.05;16.92;;;16.50;99.90;;;;;;5054429;28;20052;-29
2022/10/17 11:21:12;;;;;;;20.20;14.40;;;16.60;99.90;;;;;;5054935;28;20053;-31
2022/10/17 11:23:50;;;;;;;18.38;12.18;;;16.60;99.90;;;;;;5053144;28;20086;-31
2022/10/17 11:26:28;;;;;;;15.27;9.88;;;16.50;99.90;;;;;;5054268;28;20045;-31
2022/10/17 11:29:00;;;;;;;26.65;15.57;;;16.50;99.90;;;;;;5054837;28;20106;-33
2022/10/17 11:31:33;;;;;;;17.37;12.90;;;16.40;99.90;;;;;;5053079;28;20082;-33
2022/10/17 11:34:04;;;;;;;19.63;11.35;;;16.50;99.90;;;;;;5054113;28;20267;-32
2022/10/17 11:36:35;;;;;;;28.08;16.75;;;16.40;99.90;;;;;;5054240;28;20041;-32
2022/10/17 11:39:05;;;;;;;16.15;11.88;;;16.40;99.90;;;;;;5053962;28;20049;-32
2022/10/17 11:41:45;;;;;;;23.48;13.77;;;16.40;99.90;;;;;;5054502;28;20056;-33
2022/10/17 11:44:29;;;;;;;20.02;12.43;;;16.40;99.90;;;;;;5054260;28;20048;-32
2022/10/17 11:47:26;;;;;;;17.05;11.02;;;16.40;99.90;;;;;;5054212;28;20384;-33
2022/10/17 11:50:01;;;;;;;20.83;10.55;;;16.50;99.90;;;;;;5054430;28;20131;-33
2022/10/17 11:52:42;;;;;;;14.90;10.18;;;16.40;99.90;;;;;;5055007;28;20057;-33
2022/10/17 11:55:29;;;;;;;17.15;12.23;;;16.40;99.90;;;;;;5053821;28;20132;-33
2022/10/17 11:58:22;;;;;;;13.30;10.38;;;16.40;99.90;;;;;;5054522;28;20103;-33
2022/10/17 12:00:56;;;;;;;17.77;9.20;;;16.50;99.90;;;;;;5053276;28;20045;-33
2022/10/17 12:03:38;;;;;;;14.75;9.75;;;16.60;99.90;;;;;;5052766;28;20055;-33
2022/10/17 12:06:17;;;;;;;11.43;7.78;;;16.70;99.90;;;;;;5053919;28;20479;-33
2022/10/17 12:09:08;;;;;;;12.90;8.35;;;16.60;99.90;;;;;;5054473;28;20049;-33
2022/10/17 12:11:57;;;;;;;12.13;7.65;;;16.60;99.90;;;;;;5053633;28;20053;-33
2022/10/17 12:14:47;;;;;;;11.98;6.80;;;16.50;99.90;;;;;;5053562;28;20388;-32
2022/10/17 12:17:31;;;;;;;11.43;6.47;;;16.50;99.90;;;;;;5066448;28;20066;-33
2022/10/17 12:20:15;;;;;;;8.23;5.72;;;16.50;99.90;;;;;;5073487;28;20411;-31
2022/10/17 12:22:48;;;;;;;8.38;5.28;;;16.70;99.90;;;;;;5074054;28;20048;-32
2022/10/17 12:25:25;;;;;;;9.10;5.10;;;16.80;99.90;;;;;;5074306;28;20048;-32
2022/10/17 12:28:12;;;;;;;8.90;6.13;;;16.90;99.90;;;;;;5074328;28;20095;-32
2022/10/17 12:31:08;;;;;;;11.00;5.53;;;17.00;99.90;;;;;;5073777;28;20048;-32
2022/10/17 12:33:47;;;;;;;10.13;6.25;;;16.90;99.90;;;;;;5073452;28;20520;-32
2022/10/17 12:36:21;;;;;;;10.10;5.82;;;16.90;99.90;;;;;;5073590;28;20546;-33
2022/10/17 12:38:48;;;;;;;11.65;6.80;;;16.90;99.90;;;;;;5073898;28;20086;-33
2022/10/17 12:41:13;;;;;;;9.43;5.90;;;16.80;99.90;;;;;;5073339;28;20048;-32
2022/10/17 12:43:52;;;;;;;12.70;6.40;;;16.70;99.90;;;;;;5073318;28;20107;-32
2022/10/17 12:46:40;;;;;;;9.52;6.00;;;16.80;99.90;;;;;;5074182;28;20131;-33
2022/10/17 12:49:20;;;;;;;11.75;6.43;;;16.70;99.90;;;;;;5071997;28;20402;-32
2022/10/17 12:52:15;;;;;;;9.57;5.80;;;16.70;99.90;;;;;;5073117;28;20463;-32
2022/10/17 12:54:47;;;;;;;13.07;6.20;;;16.60;99.90;;;;;;5073264;28;20158;-32
2022/10/17 12:57:41;;;;;;;13.38;6.63;;;16.60;99.90;;;;;;5073234;28;20537;-31